Time;durP1;ratioP1;P1;durP2;ratioP2;P2;SDS_P1;SDS_P2;PMS_P1;PMS_P2;Temp;Humidity;BMP_temperature;BMP_pressure;BME280_temperature;BME280_humidity;BME280_pressure;Samples;Min_cycle;Max_cycle;Signal;HPM_P1;HPM_P2
2022/11/15 00:00:52;;;;;;;0.40;0.40;;;5.00;99.90;;;;;;4949481;28;20442;-86
2022/11/15 00:03:21;;;;;;;0.40;0.40;;;5.00;99.90;;;;;;4946658;28;20502;-86
2022/11/15 00:05:47;;;;;;;0.40;0.40;;;5.10;99.90;;;;;;4935452;28;21292;-87
2022/11/15 00:08:13;;;;;;;0.30;0.30;;;5.30;99.90;;;;;;4944434;28;20445;-86
2022/11/15 00:10:39;;;;;;;0.30;0.30;;;5.10;99.90;;;;;;4947709;28;20830;-87
2022/11/15 00:13:10;;;;;;;0.30;0.30;;;5.10;99.90;;;;;;4950542;28;20489;-86
2022/11/15 00:15:40;;;;;;;0.30;0.30;;;5.20;99.90;;;;;;4948696;28;20249;-86
2022/11/15 00:18:11;;;;;;;0.30;0.30;;;5.30;99.90;;;;;;4949735;28;20438;-86
2022/11/15 00:20:37;;;;;;;0.30;0.30;;;5.30;99.90;;;;;;4948670;28;20454;-86
2022/11/15 00:23:06;;;;;;;0.40;0.40;;;5.40;99.90;;;;;;4947572;28;20792;-86
2022/11/15 00:25:32;;;;;;;0.30;0.30;;;5.40;99.90;;;;;;4945751;28;20222;-86
2022/11/15 00:27:59;;;;;;;0.30;0.30;;;5.50;99.90;;;;;;4947585;29;20804;-86
2022/11/15 00:30:26;;;;;;;0.30;0.30;;;5.40;99.90;;;;;;4950101;29;20477;-86
2022/11/15 00:32:52;;;;;;;0.30;0.30;;;5.40;99.90;;;;;;4951828;29;20517;-86
2022/11/15 00:35:18;;;;;;;0.30;0.30;;;5.40;99.90;;;;;;4949984;28;20536;-86
2022/11/15 00:37:43;;;;;;;0.30;0.30;;;5.40;99.90;;;;;;4948177;28;20807;-86
2022/11/15 00:40:12;;;;;;;0.30;0.30;;;5.50;99.90;;;;;;4944029;28;20583;-87
2022/11/15 00:42:38;;;;;;;0.37;0.37;;;5.40;99.90;;;;;;4954392;28;20183;-86
2022/11/15 00:45:04;;;;;;;0.40;0.40;;;5.40;99.90;;;;;;4952175;28;20540;-86
2022/11/15 00:47:29;;;;;;;0.40;0.40;;;5.20;99.90;;;;;;4949449;28;20191;-86
2022/11/15 00:49:55;;;;;;;0.30;0.30;;;5.00;99.90;;;;;;4948851;29;20466;-86
2022/11/15 00:52:20;;;;;;;0.30;0.30;;;4.90;99.90;;;;;;4947746;28;20222;-86
2022/11/15 00:54:46;;;;;;;0.30;0.30;;;5.10;99.90;;;;;;4951489;28;20674;-86
2022/11/15 00:57:11;;;;;;;0.30;0.30;;;5.10;99.90;;;;;;4950451;28;20191;-86
2022/11/15 00:59:37;;;;;;;0.30;0.30;;;5.10;99.90;;;;;;4952640;28;20222;-86
2022/11/15 01:02:02;;;;;;;0.30;0.30;;;5.20;99.90;;;;;;4951303;28;20191;-86
2022/11/15 01:04:27;;;;;;;0.40;0.40;;;5.40;99.90;;;;;;4948255;29;20269;-85
2022/11/15 01:06:53;;;;;;;0.30;0.30;;;5.50;99.90;;;;;;4949125;29;20283;-85
2022/11/15 01:09:19;;;;;;;0.40;0.40;;;5.50;99.90;;;;;;4949668;28;20209;-86
2022/11/15 01:11:44;;;;;;;0.30;0.30;;;5.60;99.90;;;;;;4948892;29;20175;-86
2022/11/15 01:14:10;;;;;;;0.40;0.40;;;5.60;99.90;;;;;;4948668;28;20278;-86
2022/11/15 01:16:35;;;;;;;0.30;0.30;;;5.70;99.90;;;;;;4949407;28;20726;-86
2022/11/15 01:19:01;;;;;;;0.30;0.30;;;5.70;99.90;;;;;;4946964;28;20219;-86
2022/11/15 01:21:27;;;;;;;0.20;0.20;;;5.70;99.90;;;;;;4953044;28;20190;-86
2022/11/15 01:23:54;;;;;;;0.30;0.30;;;5.60;99.90;;;;;;4950049;28;20199;-86
2022/11/15 01:26:20;;;;;;;0.40;0.40;;;5.70;99.90;;;;;;4944597;28;20234;-86
2022/11/15 01:28:46;;;;;;;0.30;0.30;;;5.70;99.90;;;;;;4950128;28;20438;-85
2022/11/15 01:31:17;;;;;;;0.40;0.40;;;5.70;99.90;;;;;;4952337;28;20457;-86
2022/11/15 01:33:43;;;;;;;0.30;0.30;;;5.70;99.90;;;;;;4953402;28;20190;-85
2022/11/15 01:36:13;;;;;;;0.30;0.30;;;5.70;99.90;;;;;;4949724;28;20862;-86
2022/11/15 01:38:38;;;;;;;0.30;0.30;;;5.70;99.90;;;;;;4947853;28;20236;-87
2022/11/15 01:41:04;;;;;;;0.30;0.30;;;5.70;99.90;;;;;;4950947;29;20885;-86
2022/11/15 01:43:35;;;;;;;0.30;0.30;;;5.70;99.90;;;;;;4949400;28;20202;-86
2022/11/15 01:46:21;;;;;;;0.40;0.40;;;5.70;99.90;;;;;;4945971;28;20666;-85
2022/11/15 01:48:47;;;;;;;0.40;0.40;;;5.70;99.90;;;;;;4941895;28;20512;-86
2022/11/15 01:51:17;;;;;;;0.30;0.30;;;5.70;99.90;;;;;;4947283;28;20529;-86
2022/11/15 01:53:47;;;;;;;0.23;0.23;;;5.80;99.90;;;;;;4947895;28;21078;-86
2022/11/15 01:56:17;;;;;;;0.30;0.30;;;5.80;99.90;;;;;;4950698;29;20450;-86
2022/11/15 01:58:45;;;;;;;0.30;0.30;;;5.80;99.90;;;;;;4948811;28;20450;-86
2022/11/15 02:01:13;;;;;;;0.30;0.30;;;5.80;99.90;;;;;;4945392;28;20486;-86
2022/11/15 02:03:42;;;;;;;0.30;0.30;;;5.70;99.90;;;;;;4951124;28;20473;-87
2022/11/15 02:06:08;;;;;;;0.30;0.30;;;5.70;99.90;;;;;;4947568;28;20489;-86
2022/11/15 02:08:34;;;;;;;0.40;0.40;;;5.80;99.90;;;;;;4961892;28;20533;-85
2022/11/15 02:10:59;;;;;;;0.30;0.30;;;5.80;99.90;;;;;;4948530;29;20561;-87
2022/11/15 02:13:25;;;;;;;0.30;0.30;;;5.80;99.90;;;;;;4946164;28;20559;-86
2022/11/15 02:16:13;;;;;;;0.30;0.30;;;5.80;99.90;;;;;;4945572;28;20245;-86
2022/11/15 02:18:45;;;;;;;0.30;0.30;;;5.80;99.90;;;;;;4952707;28;20365;-86
2022/11/15 02:21:32;;;;;;;0.40;0.40;;;5.80;99.90;;;;;;4950003;28;20462;-85
2022/11/15 02:24:29;;;;;;;0.33;0.33;;;5.80;99.90;;;;;;4950241;28;20446;-84
2022/11/15 02:27:21;;;;;;;0.40;0.40;;;5.80;99.90;;;;;;4948138;29;20446;-86
2022/11/15 02:30:07;;;;;;;0.30;0.30;;;5.70;99.90;;;;;;4946968;28;20462;-85
2022/11/15 02:32:44;;;;;;;0.20;0.20;;;5.80;99.90;;;;;;4950655;28;20465;-85
2022/11/15 02:35:50;;;;;;;0.30;0.30;;;5.70;99.90;;;;;;4950148;28;20977;-85
2022/11/15 02:38:26;;;;;;;0.30;0.30;;;5.70;99.90;;;;;;4953551;28;20458;-85
2022/11/15 02:40:57;;;;;;;0.30;0.30;;;5.70;99.90;;;;;;4946314;28;20450;-86
2022/11/15 02:43:58;;;;;;;0.30;0.30;;;5.70;99.90;;;;;;4948922;29;20458;-86
2022/11/15 02:49:28;;;;;;;0.40;0.40;;;5.60;99.90;;;;;;4946040;28;20452;-86
2022/11/15 02:51:55;;;;;;;0.40;0.40;;;5.60;99.90;;;;;;4954878;28;20449;-85
2022/11/15 02:54:26;;;;;;;0.30;0.30;;;5.60;99.90;;;;;;4947636;28;20836;-85
2022/11/15 02:57:02;;;;;;;0.30;0.30;;;5.60;99.90;;;;;;4945782;28;20453;-85
2022/11/15 02:59:57;;;;;;;0.30;0.30;;;5.50;99.90;;;;;;4949600;28;20458;-86
2022/11/15 03:02:58;;;;;;;0.30;0.30;;;5.50;99.90;;;;;;4952717;28;20453;-86
2022/11/15 03:05:52;;;;;;;0.30;0.30;;;5.40;99.90;;;;;;4948136;28;20546;-86
2022/11/15 03:08:31;;;;;;;0.30;0.30;;;5.40;99.90;;;;;;4944929;28;20562;-86
2022/11/15 03:11:27;;;;;;;0.30;0.30;;;5.40;99.90;;;;;;4952496;29;20812;-86
2022/11/15 03:14:30;;;;;;;0.30;0.30;;;5.30;99.90;;;;;;4941806;28;20450;-86
2022/11/15 03:17:02;;;;;;;0.30;0.30;;;5.40;99.90;;;;;;4949363;28;20453;-86
2022/11/15 03:19:40;;;;;;;0.30;0.30;;;5.40;99.90;;;;;;4955389;28;20449;-86
2022/11/15 03:22:10;;;;;;;0.30;0.30;;;5.30;99.90;;;;;;4948390;28;20454;-86
2022/11/15 03:24:37;;;;;;;0.30;0.30;;;5.30;99.90;;;;;;4946762;28;21101;-85
2022/11/15 03:27:06;;;;;;;0.30;0.30;;;5.30;99.90;;;;;;4949171;29;20457;-87
2022/11/15 03:29:46;;;;;;;0.33;0.33;;;5.30;99.90;;;;;;4948649;28;20446;-86
2022/11/15 03:32:26;;;;;;;0.40;0.40;;;5.30;99.90;;;;;;4949075;28;20474;-86
2022/11/15 03:34:51;;;;;;;0.40;0.40;;;5.30;99.90;;;;;;4947604;28;20450;-86
2022/11/15 03:37:20;;;;;;;0.30;0.30;;;5.20;99.90;;;;;;4946771;28;20448;-85
2022/11/15 03:39:46;;;;;;;0.37;0.37;;;5.20;99.90;;;;;;4946197;29;20276;-86
2022/11/15 03:42:30;;;;;;;0.30;0.30;;;5.20;99.90;;;;;;4944082;28;20450;-86
2022/11/15 03:45:20;;;;;;;0.40;0.40;;;5.20;99.90;;;;;;4947774;28;21021;-86
2022/11/15 03:48:08;;;;;;;0.37;0.37;;;5.10;99.90;;;;;;4943233;28;20488;-86
2022/11/15 03:50:34;;;;;;;0.30;0.30;;;5.10;99.90;;;;;;4946481;28;20484;-86
2022/11/15 03:53:00;;;;;;;0.40;0.40;;;5.10;99.90;;;;;;4946787;29;20877;-86
2022/11/15 03:55:26;;;;;;;0.40;0.40;;;5.20;99.90;;;;;;4944458;28;20595;-86
2022/11/15 03:57:54;;;;;;;0.30;0.30;;;5.10;99.90;;;;;;4955026;28;20301;-86
2022/11/15 04:00:20;;;;;;;0.40;0.40;;;5.10;99.90;;;;;;4947252;28;20932;-86
2022/11/15 04:02:45;;;;;;;0.40;0.40;;;5.10;99.90;;;;;;4951376;28;20549;-86
2022/11/15 04:05:11;;;;;;;0.30;0.30;;;5.10;99.90;;;;;;4948695;28;20226;-86
2022/11/15 04:07:36;;;;;;;0.40;0.40;;;5.10;99.90;;;;;;4948420;28;20554;-86
2022/11/15 04:10:03;;;;;;;0.40;0.40;;;5.10;99.90;;;;;;4949651;28;20214;-86
2022/11/15 04:12:33;;;;;;;0.30;0.30;;;5.10;99.90;;;;;;4953241;28;20186;-86
2022/11/15 04:15:09;;;;;;;0.30;0.30;;;5.10;99.90;;;;;;4949429;28;20467;-86
2022/11/15 04:17:39;;;;;;;0.40;0.40;;;5.10;99.90;;;;;;4947454;29;20461;-86
2022/11/15 04:25:40;;;;;;;0.40;0.40;;;5.00;99.90;;;;;;4949972;29;20480;-86
2022/11/15 04:28:06;;;;;;;0.30;0.30;;;5.00;99.90;;;;;;4956469;28;20445;-86
2022/11/15 04:30:31;;;;;;;0.30;0.30;;;5.00;99.90;;;;;;4947857;28;20446;-86
2022/11/15 04:32:56;;;;;;;0.37;0.37;;;5.00;99.90;;;;;;4949007;29;20207;-85
2022/11/15 04:35:22;;;;;;;0.30;0.30;;;5.00;99.90;;;;;;4942713;28;20611;-86
2022/11/15 04:37:47;;;;;;;0.40;0.40;;;5.00;99.90;;;;;;4949556;28;20219;-85
2022/11/15 04:40:13;;;;;;;0.30;0.30;;;5.00;99.90;;;;;;4949216;28;20657;-86
2022/11/15 04:42:41;;;;;;;0.30;0.30;;;5.00;99.90;;;;;;4947974;28;20194;-85
2022/11/15 04:45:07;;;;;;;0.30;0.30;;;5.00;99.90;;;;;;4947744;29;20214;-86
2022/11/15 04:47:32;;;;;;;0.30;0.30;;;5.00;99.90;;;;;;4951082;28;20446;-86
2022/11/15 04:49:58;;;;;;;0.40;0.40;;;5.00;99.90;;;;;;4953284;28;20194;-87
2022/11/15 04:52:23;;;;;;;0.30;0.30;;;5.00;99.90;;;;;;4950832;29;20537;-86
2022/11/15 04:54:49;;;;;;;0.40;0.40;;;5.00;99.90;;;;;;4950346;28;20191;-86
2022/11/15 04:57:14;;;;;;;0.30;0.30;;;5.00;99.90;;;;;;4948724;28;20202;-86
2022/11/15 04:59:40;;;;;;;0.30;0.30;;;4.90;99.90;;;;;;4985421;28;20178;-86
2022/11/15 05:02:05;;;;;;;0.40;0.40;;;4.90;99.90;;;;;;4950339;29;20228;-86
2022/11/15 05:04:31;;;;;;;0.30;0.30;;;4.90;99.90;;;;;;4948217;29;20567;-86
2022/11/15 05:06:56;;;;;;;0.30;0.30;;;4.80;99.90;;;;;;4946580;29;20190;-85
2022/11/15 05:09:21;;;;;;;0.40;0.40;;;4.80;99.90;;;;;;4947645;29;20190;-85
2022/11/15 05:11:47;;;;;;;0.40;0.40;;;4.80;99.90;;;;;;4951902;28;20264;-86
2022/11/15 05:14:13;;;;;;;0.30;0.30;;;4.80;99.90;;;;;;4951656;28;20183;-86
2022/11/15 05:16:39;;;;;;;0.30;0.30;;;4.70;99.90;;;;;;4948570;28;20195;-86
2022/11/15 05:19:05;;;;;;;0.30;0.30;;;4.70;99.90;;;;;;4949617;29;20825;-86
2022/11/15 05:21:31;;;;;;;0.40;0.40;;;4.70;99.90;;;;;;4948884;29;20191;-86
2022/11/15 05:23:57;;;;;;;0.40;0.40;;;4.70;99.90;;;;;;4953219;28;20532;-85
2022/11/15 05:26:23;;;;;;;0.30;0.30;;;4.70;99.90;;;;;;4952096;28;21119;-86
2022/11/15 05:28:53;;;;;;;0.40;0.40;;;4.70;99.90;;;;;;4950116;28;20270;-87
2022/11/15 05:31:19;;;;;;;0.40;0.40;;;4.70;99.90;;;;;;4941375;28;20542;-86
2022/11/15 05:33:45;;;;;;;0.40;0.40;;;4.60;99.90;;;;;;4953236;28;20529;-86
2022/11/15 05:36:27;;;;;;;0.40;0.40;;;4.60;99.90;;;;;;4946183;29;20194;-86
2022/11/15 05:38:53;;;;;;;0.40;0.40;;;4.60;99.90;;;;;;4949832;29;20218;-86
2022/11/15 05:41:24;;;;;;;0.40;0.40;;;4.60;99.90;;;;;;4948485;28;20505;-85
2022/11/15 05:43:51;;;;;;;0.30;0.30;;;4.70;99.90;;;;;;4953048;28;20446;-87
2022/11/15 05:46:17;;;;;;;0.40;0.40;;;4.80;99.90;;;;;;4949290;28;20494;-85
2022/11/15 05:48:45;;;;;;;0.23;0.23;;;4.90;99.90;;;;;;4943020;28;20453;-86
2022/11/15 05:51:14;;;;;;;0.40;0.40;;;4.90;99.90;;;;;;4945604;28;20470;-86
2022/11/15 05:53:39;;;;;;;0.30;0.30;;;5.00;99.90;;;;;;4947934;28;20473;-86
2022/11/15 05:56:06;;;;;;;0.23;0.23;;;5.10;99.90;;;;;;4944587;29;21046;-86
2022/11/15 05:58:32;;;;;;;0.30;0.30;;;5.10;99.90;;;;;;4955720;28;20879;-86
2022/11/15 06:00:59;;;;;;;0.20;0.20;;;5.10;99.90;;;;;;4952833;28;20449;-86
2022/11/15 06:03:24;;;;;;;0.30;0.30;;;5.10;99.90;;;;;;4940248;28;20446;-86
2022/11/15 06:05:50;;;;;;;0.30;0.30;;;5.20;99.90;;;;;;4950454;28;21063;-86
2022/11/15 06:08:15;;;;;;;0.30;0.30;;;5.20;99.90;;;;;;4942725;29;20282;-86
2022/11/15 06:10:41;;;;;;;0.30;0.30;;;5.20;99.90;;;;;;4942843;28;20919;-86
2022/11/15 06:13:06;;;;;;;0.30;0.30;;;5.20;99.90;;;;;;4952855;28;20198;-86
2022/11/15 06:15:36;;;;;;;0.30;0.30;;;5.30;99.90;;;;;;4945667;28;20210;-85
2022/11/15 06:18:01;;;;;;;0.30;0.30;;;5.30;99.90;;;;;;4950203;28;20199;-86
2022/11/15 06:20:28;;;;;;;0.30;0.30;;;5.30;99.90;;;;;;4944570;29;20451;-86
2022/11/15 06:22:58;;;;;;;0.30;0.30;;;5.30;99.90;;;;;;4946013;29;20294;-84
2022/11/15 06:25:24;;;;;;;0.30;0.30;;;5.30;99.90;;;;;;4947210;28;20887;-84
2022/11/15 06:27:53;;;;;;;0.30;0.30;;;5.40;99.90;;;;;;4946591;28;20434;-85
2022/11/15 06:30:19;;;;;;;0.20;0.20;;;5.40;99.90;;;;;;4945195;28;20183;-84
2022/11/15 06:32:45;;;;;;;0.30;0.30;;;5.40;99.90;;;;;;4949930;28;20450;-84
2022/11/15 06:35:10;;;;;;;0.40;0.40;;;5.40;99.90;;;;;;4947647;28;20455;-85
2022/11/15 06:37:36;;;;;;;0.30;0.30;;;5.40;99.90;;;;;;4945464;28;20792;-84
2022/11/15 06:40:02;;;;;;;0.30;0.30;;;5.40;99.90;;;;;;4946730;28;20230;-83
2022/11/15 06:42:27;;;;;;;0.30;0.30;;;5.40;99.90;;;;;;4952642;28;20550;-84
2022/11/15 06:44:53;;;;;;;0.30;0.30;;;5.40;99.90;;;;;;4945282;29;20569;-84
2022/11/15 06:47:18;;;;;;;0.30;0.30;;;5.40;99.90;;;;;;4945450;28;20191;-84
2022/11/15 06:49:44;;;;;;;0.30;0.30;;;5.40;99.90;;;;;;4952316;28;20198;-85
2022/11/15 06:52:09;;;;;;;0.30;0.30;;;5.40;99.90;;;;;;4943285;28;20643;-83
2022/11/15 06:54:35;;;;;;;0.30;0.30;;;5.40;99.90;;;;;;4942784;28;20195;-85
2022/11/15 06:57:00;;;;;;;0.40;0.40;;;5.40;99.90;;;;;;4947991;28;20198;-85
2022/11/15 06:59:26;;;;;;;0.30;0.30;;;5.50;99.90;;;;;;4948292;28;20202;-86
2022/11/15 07:01:51;;;;;;;0.30;0.30;;;5.50;99.90;;;;;;4951494;28;20195;-84
2022/11/15 07:04:17;;;;;;;0.30;0.30;;;5.60;99.90;;;;;;4950104;28;20245;-84
2022/11/15 07:06:42;;;;;;;0.30;0.30;;;5.60;99.90;;;;;;4949631;28;20295;-84
2022/11/15 07:09:08;;;;;;;0.30;0.30;;;5.70;99.90;;;;;;4948586;28;20222;-84
2022/11/15 07:11:33;;;;;;;0.30;0.30;;;5.80;99.90;;;;;;4946065;28;20209;-84
2022/11/15 07:13:59;;;;;;;0.30;0.30;;;5.80;99.90;;;;;;4943429;28;20275;-84
2022/11/15 07:16:25;;;;;;;0.30;0.30;;;5.80;99.90;;;;;;4945095;28;20195;-83
2022/11/15 07:18:50;;;;;;;0.30;0.30;;;5.90;99.90;;;;;;4946032;28;20511;-84
2022/11/15 07:21:16;;;;;;;0.30;0.30;;;6.00;99.90;;;;;;4944048;28;20199;-84
2022/11/15 07:23:41;;;;;;;0.30;0.30;;;6.00;99.90;;;;;;4947226;28;20190;-84
2022/11/15 07:26:07;;;;;;;0.30;0.30;;;6.10;99.90;;;;;;4948805;28;20605;-86
2022/11/15 07:28:33;;;;;;;0.30;0.30;;;6.10;99.90;;;;;;4941709;28;20226;-85
2022/11/15 07:31:03;;;;;;;0.30;0.30;;;6.10;99.90;;;;;;4954891;28;21003;-85
2022/11/15 07:33:29;;;;;;;0.30;0.30;;;6.10;99.90;;;;;;4943488;28;20442;-84
2022/11/15 07:35:58;;;;;;;0.30;0.30;;;6.10;99.90;;;;;;4949815;28;20817;-85
2022/11/15 07:38:24;;;;;;;0.30;0.30;;;6.10;99.90;;;;;;4956918;28;20257;-85
2022/11/15 07:40:57;;;;;;;0.30;0.30;;;6.20;99.90;;;;;;4952514;28;20482;-85
2022/11/15 07:43:22;;;;;;;0.30;0.30;;;6.20;99.90;;;;;;4975990;28;20183;-86
2022/11/15 07:45:48;;;;;;;0.30;0.30;;;6.20;99.90;;;;;;4951599;28;20472;-86
2022/11/15 07:48:13;;;;;;;0.30;0.30;;;6.20;99.90;;;;;;4951908;28;20662;-84
2022/11/15 07:50:42;;;;;;;0.30;0.30;;;6.20;99.90;;;;;;4952137;28;20206;-84
2022/11/15 07:53:09;;;;;;;0.30;0.30;;;6.20;99.90;;;;;;4951620;28;20195;-84
2022/11/15 07:55:35;;;;;;;0.30;0.30;;;6.30;99.90;;;;;;4950547;28;20438;-85
2022/11/15 07:58:06;;;;;;;0.30;0.30;;;6.30;99.90;;;;;;4949114;28;20477;-86
2022/11/15 08:00:33;;;;;;;0.30;0.30;;;6.30;99.90;;;;;;4949595;28;20235;-86
2022/11/15 08:03:10;;;;;;;0.30;0.30;;;6.30;99.90;;;;;;4939025;29;20458;-85
2022/11/15 08:05:37;;;;;;;0.30;0.30;;;6.40;99.90;;;;;;4947538;28;20481;-86
2022/11/15 08:08:03;;;;;;;0.30;0.30;;;6.40;99.90;;;;;;4947832;28;20446;-85
2022/11/15 08:10:29;;;;;;;0.30;0.30;;;6.40;99.90;;;;;;4950424;28;20480;-86
2022/11/15 08:13:04;;;;;;;0.30;0.30;;;6.50;99.90;;;;;;4944454;28;20434;-86
2022/11/15 08:15:30;;;;;;;0.30;0.30;;;6.50;99.90;;;;;;4946507;28;20465;-84
2022/11/15 08:18:01;;;;;;;0.30;0.30;;;6.50;99.90;;;;;;4945049;28;21014;-85
2022/11/15 08:20:32;;;;;;;0.30;0.30;;;6.60;99.90;;;;;;4944106;28;20845;-85
2022/11/15 08:22:58;;;;;;;0.30;0.30;;;6.50;99.90;;;;;;4955769;28;20446;-85
2022/11/15 08:25:28;;;;;;;0.30;0.30;;;6.60;99.90;;;;;;4948825;28;20508;-86
2022/11/15 08:27:55;;;;;;;0.20;0.20;;;6.60;99.90;;;;;;4947012;28;20465;-87
2022/11/15 08:30:21;;;;;;;0.30;0.30;;;6.60;99.90;;;;;;4946161;28;20523;-87
2022/11/15 08:32:48;;;;;;;0.30;0.30;;;6.70;99.90;;;;;;4945298;28;20941;-85
2022/11/15 08:35:14;;;;;;;0.30;0.30;;;6.70;99.90;;;;;;4943277;28;21065;-87
2022/11/15 08:37:39;;;;;;;0.30;0.30;;;6.70;99.90;;;;;;4950798;29;20521;-88
2022/11/15 08:40:05;;;;;;;0.30;0.30;;;6.70;99.90;;;;;;4949061;28;20226;-87
2022/11/15 08:42:31;;;;;;;0.30;0.30;;;6.70;99.90;;;;;;4949379;28;20195;-88
2022/11/15 08:44:56;;;;;;;0.30;0.30;;;6.80;99.90;;;;;;4951490;28;20472;-87
2022/11/15 08:47:22;;;;;;;0.30;0.30;;;6.90;99.90;;;;;;4950253;28;20560;-87
2022/11/15 08:49:48;;;;;;;0.30;0.30;;;6.90;99.90;;;;;;4953440;28;20187;-87
2022/11/15 08:52:14;;;;;;;0.30;0.30;;;6.90;99.90;;;;;;4950439;28;20264;-87
2022/11/15 08:54:39;;;;;;;0.20;0.20;;;6.90;99.90;;;;;;4945917;28;20192;-86
2022/11/15 08:57:05;;;;;;;0.30;0.30;;;7.00;99.90;;;;;;4947684;28;20527;-86
2022/11/15 08:59:31;;;;;;;0.30;0.30;;;7.00;99.90;;;;;;4955689;28;20197;-87
2022/11/15 09:01:56;;;;;;;0.30;0.30;;;7.00;99.90;;;;;;4956495;28;20457;-86
2022/11/15 09:04:22;;;;;;;0.30;0.30;;;7.00;99.90;;;;;;4955108;28;20266;-85
2022/11/15 09:06:47;;;;;;;0.30;0.30;;;7.00;99.90;;;;;;4949850;28;20234;-88
2022/11/15 09:09:13;;;;;;;0.30;0.30;;;7.10;99.90;;;;;;4952041;28;20750;-87
2022/11/15 09:11:38;;;;;;;0.30;0.30;;;7.10;99.90;;;;;;4956456;28;20572;-86
2022/11/15 09:14:04;;;;;;;0.30;0.30;;;7.10;99.90;;;;;;4951942;28;20203;-86
2022/11/15 09:16:31;;;;;;;0.30;0.30;;;7.10;99.90;;;;;;4963346;28;20533;-86
2022/11/15 09:18:56;;;;;;;0.30;0.30;;;7.20;99.90;;;;;;4951103;28;20252;-86
2022/11/15 09:21:22;;;;;;;0.30;0.30;;;7.20;99.90;;;;;;4953140;28;20537;-86
2022/11/15 09:23:51;;;;;;;0.30;0.30;;;7.20;99.90;;;;;;4955465;28;20187;-85
2022/11/15 09:26:17;;;;;;;0.30;0.30;;;7.20;99.90;;;;;;4954820;28;20257;-87
2022/11/15 09:28:42;;;;;;;0.30;0.30;;;7.30;99.90;;;;;;4949667;28;20504;-86
2022/11/15 09:31:08;;;;;;;0.30;0.30;;;7.30;99.90;;;;;;4954687;28;20324;-86
2022/11/15 09:33:34;;;;;;;0.30;0.30;;;7.30;99.90;;;;;;4951575;28;20183;-85
2022/11/15 09:36:09;;;;;;;0.30;0.30;;;7.30;99.90;;;;;;4952336;28;20191;-86
2022/11/15 09:38:35;;;;;;;0.20;0.20;;;7.30;99.90;;;;;;4943569;28;20329;-86
2022/11/15 09:41:13;;;;;;;0.30;0.30;;;7.40;99.90;;;;;;4955017;28;20554;-85
2022/11/15 09:44:17;;;;;;;0.30;0.30;;;7.40;99.90;;;;;;4952535;28;20477;-87
2022/11/15 09:46:45;;;;;;;0.30;0.30;;;7.40;99.90;;;;;;4951960;28;20486;-88
2022/11/15 09:49:15;;;;;;;0.30;0.30;;;7.40;99.90;;;;;;4949742;28;20544;-87
2022/11/15 09:51:46;;;;;;;0.20;0.20;;;7.50;99.90;;;;;;4950375;28;20450;-87
2022/11/15 09:54:21;;;;;;;0.30;0.30;;;7.50;99.90;;;;;;4947152;29;20462;-87
2022/11/15 09:56:47;;;;;;;0.30;0.30;;;7.50;99.90;;;;;;4953218;28;20469;-88
2022/11/15 09:59:31;;;;;;;0.30;0.30;;;7.50;99.90;;;;;;4951703;28;20505;-87
2022/11/15 10:02:27;;;;;;;0.20;0.20;;;7.50;99.90;;;;;;4951227;28;21032;-89
2022/11/15 10:04:54;;;;;;;0.20;0.20;;;7.60;99.90;;;;;;4945321;28;20477;-87
2022/11/15 10:07:40;;;;;;;0.30;0.30;;;7.60;99.90;;;;;;4950299;28;20544;-86
2022/11/15 10:10:31;;;;;;;0.30;0.30;;;7.70;99.90;;;;;;4951526;28;20435;-86
2022/11/15 10:12:58;;;;;;;0.30;0.30;;;7.70;99.90;;;;;;4949607;28;20587;-81
2022/11/15 10:15:24;;;;;;;0.30;0.30;;;7.70;99.90;;;;;;4947641;28;20442;-88
2022/11/15 10:17:58;;;;;;;0.20;0.20;;;7.80;99.90;;;;;;4943573;28;20453;-92
2022/11/15 10:20:27;;;;;;;0.20;0.20;;;7.80;99.90;;;;;;4947145;28;20529;-85
2022/11/15 10:22:56;;;;;;;0.20;0.20;;;7.80;99.90;;;;;;4951394;28;20442;-85
2022/11/15 10:25:30;;;;;;;0.20;0.20;;;7.80;99.90;;;;;;4945012;28;21227;-84
2022/11/15 10:28:22;;;;;;;0.20;0.20;;;7.80;99.90;;;;;;4945093;28;20576;-83
2022/11/15 10:30:53;;;;;;;0.30;0.30;;;7.90;99.90;;;;;;4965425;28;20466;-85
2022/11/15 10:33:25;;;;;;;0.30;0.30;;;7.90;99.90;;;;;;4957504;28;20446;-86
2022/11/15 10:36:09;;;;;;;0.30;0.30;;;7.90;99.90;;;;;;4942703;28;20459;-87
2022/11/15 10:39:02;;;;;;;0.30;0.30;;;7.90;99.90;;;;;;4945377;28;20478;-85
2022/11/15 10:41:31;;;;;;;0.20;0.20;;;7.90;99.90;;;;;;4971045;28;20556;-84
2022/11/15 10:44:19;;;;;;;0.30;0.30;;;7.90;99.90;;;;;;4945611;28;20553;-84
2022/11/15 10:47:03;;;;;;;0.30;0.30;;;7.90;99.90;;;;;;4949146;28;20476;-84
2022/11/15 10:49:32;;;;;;;0.27;0.27;;;7.90;99.90;;;;;;4947274;28;20491;-84
2022/11/15 10:52:19;;;;;;;0.30;0.30;;;7.90;99.90;;;;;;4941325;28;20807;-84
2022/11/15 10:54:53;;;;;;;0.30;0.30;;;7.90;99.90;;;;;;4948417;28;20491;-85
2022/11/15 10:57:22;;;;;;;0.20;0.20;;;7.90;99.90;;;;;;4949927;28;20456;-84
2022/11/15 10:59:50;;;;;;;0.27;0.27;;;7.90;99.90;;;;;;4934855;28;20443;-83
2022/11/15 11:02:37;;;;;;;0.23;0.23;;;7.90;99.90;;;;;;4952599;28;20507;-85
2022/11/15 11:05:06;;;;;;;0.20;0.20;;;7.90;99.90;;;;;;4939826;28;20525;-83
2022/11/15 11:07:35;;;;;;;0.20;0.20;;;7.90;99.90;;;;;;4934976;28;20480;-85
2022/11/15 11:10:20;;;;;;;0.20;0.20;;;7.90;99.90;;;;;;4962560;28;20442;-84
2022/11/15 11:12:45;;;;;;;0.30;0.30;;;7.90;99.90;;;;;;4950449;28;20504;-84
2022/11/15 11:15:13;;;;;;;0.30;0.30;;;7.90;99.90;;;;;;4951351;28;20450;-84
2022/11/15 11:18:15;;;;;;;0.20;0.20;;;8.00;99.90;;;;;;4949832;28;20190;-84
2022/11/15 11:20:48;;;;;;;0.20;0.20;;;8.00;99.90;;;;;;4951638;28;20468;-84
2022/11/15 11:23:41;;;;;;;0.30;0.30;;;8.00;99.90;;;;;;4946961;28;20442;-84
2022/11/15 11:26:15;;;;;;;0.30;0.30;;;8.10;99.90;;;;;;4936314;28;21051;-85
2022/11/15 11:28:55;;;;;;;0.20;0.20;;;8.10;99.90;;;;;;4950489;28;20529;-85
2022/11/15 11:31:29;;;;;;;0.23;0.23;;;8.10;99.90;;;;;;4938687;28;20484;-85
2022/11/15 11:34:29;;;;;;;0.23;0.23;;;8.10;99.90;;;;;;4975523;28;20855;-86
2022/11/15 11:37:02;;;;;;;0.30;0.30;;;8.10;99.90;;;;;;4943238;28;20469;-84
2022/11/15 11:39:59;;;;;;;0.30;0.30;;;8.20;99.90;;;;;;4944699;28;20473;-86
2022/11/15 11:42:42;;;;;;;0.30;0.30;;;8.20;99.90;;;;;;4948264;28;20507;-87
2022/11/15 11:45:24;;;;;;;0.30;0.30;;;8.20;99.90;;;;;;4958715;28;20473;-85
2022/11/15 11:48:07;;;;;;;0.20;0.20;;;8.30;99.90;;;;;;4932789;28;20536;-86
2022/11/15 11:50:37;;;;;;;0.20;0.20;;;8.30;99.90;;;;;;4949903;28;20482;-86
2022/11/15 11:53:14;;;;;;;0.20;0.20;;;8.30;99.90;;;;;;4950436;28;20796;-84
2022/11/15 11:55:45;;;;;;;0.20;0.20;;;8.30;99.90;;;;;;4950308;28;20847;-86
2022/11/15 11:58:27;;;;;;;0.30;0.30;;;8.40;99.90;;;;;;4947652;28;20486;-86
2022/11/15 12:01:10;;;;;;;0.20;0.20;;;8.40;99.90;;;;;;4939497;28;20446;-86
2022/11/15 12:04:06;;;;;;;0.30;0.30;;;8.50;99.90;;;;;;4947601;28;20474;-85
2022/11/15 12:06:53;;;;;;;0.20;0.20;;;8.50;99.90;;;;;;4950455;28;20506;-85
2022/11/15 12:09:39;;;;;;;0.30;0.30;;;8.50;99.90;;;;;;4949148;28;20493;-85
2022/11/15 12:12:29;;;;;;;0.20;0.20;;;8.50;99.90;;;;;;4944113;28;20476;-86
2022/11/15 12:15:16;;;;;;;0.20;0.20;;;8.60;99.90;;;;;;4951912;28;20435;-85
2022/11/15 12:17:43;;;;;;;0.20;0.20;;;8.60;99.90;;;;;;4953688;28;20497;-85
2022/11/15 12:20:21;;;;;;;0.20;0.20;;;8.60;99.90;;;;;;4949152;28;20496;-86
2022/11/15 12:23:19;;;;;;;0.20;0.20;;;8.60;99.90;;;;;;4944255;28;20450;-86
2022/11/15 12:25:58;;;;;;;0.30;0.30;;;8.70;99.90;;;;;;4942124;28;20512;-85
2022/11/15 12:28:34;;;;;;;0.20;0.20;;;8.70;99.90;;;;;;4950446;28;20536;-86
2022/11/15 12:31:22;;;;;;;0.20;0.20;;;8.70;99.90;;;;;;4953491;28;20999;-86
2022/11/15 12:33:49;;;;;;;0.20;0.20;;;8.70;99.90;;;;;;4957538;28;20816;-86
2022/11/15 12:36:20;;;;;;;0.20;0.20;;;8.70;99.90;;;;;;4953504;28;20450;-84
2022/11/15 12:39:04;;;;;;;0.20;0.20;;;8.70;99.90;;;;;;4949708;28;20478;-84
2022/11/15 12:41:35;;;;;;;0.23;0.23;;;8.80;99.90;;;;;;4951951;28;20565;-87
2022/11/15 12:44:01;;;;;;;0.20;0.20;;;8.80;99.90;;;;;;4950584;28;20450;-84
2022/11/15 12:46:29;;;;;;;0.20;0.20;;;8.80;99.90;;;;;;4945699;28;20524;-84
2022/11/15 12:49:02;;;;;;;0.20;0.20;;;8.70;99.90;;;;;;4949227;29;20950;-84
2022/11/15 12:51:43;;;;;;;0.20;0.20;;;8.70;99.90;;;;;;4951006;28;20441;-84
2022/11/15 12:54:24;;;;;;;0.20;0.20;;;8.80;99.90;;;;;;4951174;28;20526;-84
2022/11/15 12:57:07;;;;;;;0.20;0.20;;;8.80;99.90;;;;;;4959265;28;20958;-84
2022/11/15 12:59:48;;;;;;;0.20;0.20;;;8.80;99.90;;;;;;4962306;28;20931;-84
2022/11/15 13:02:25;;;;;;;0.20;0.20;;;8.80;99.90;;;;;;4946345;28;20572;-84
2022/11/15 13:04:53;;;;;;;0.20;0.20;;;8.80;99.90;;;;;;4945582;28;20877;-83
2022/11/15 13:07:40;;;;;;;0.20;0.20;;;8.80;99.90;;;;;;4949577;28;20464;-84
2022/11/15 13:10:32;;;;;;;0.20;0.20;;;8.90;99.90;;;;;;4950233;28;20468;-84
2022/11/15 13:13:04;;;;;;;0.20;0.20;;;8.90;99.90;;;;;;4938711;28;20557;-84
2022/11/15 13:15:39;;;;;;;0.20;0.20;;;8.90;99.90;;;;;;4931612;28;20953;-84
2022/11/15 13:18:26;;;;;;;0.20;0.20;;;8.80;99.90;;;;;;4948809;28;20461;-83
2022/11/15 13:20:52;;;;;;;0.20;0.20;;;8.80;99.90;;;;;;4946216;28;20464;-84
2022/11/15 13:23:17;;;;;;;0.20;0.20;;;8.90;99.90;;;;;;4949055;28;20462;-84
2022/11/15 13:26:12;;;;;;;0.20;0.20;;;8.90;99.90;;;;;;4950209;28;20206;-85
2022/11/15 13:28:51;;;;;;;0.20;0.20;;;8.90;99.90;;;;;;4939161;28;20313;-84